createdAt,value
2017-12-20T00:02:03.588Z,103104.37
2017-12-20T00:04:30.681Z,103100.44
2017-12-20T00:06:56.865Z,103103.06
2017-12-20T00:09:23.109Z,103103.94
2017-12-20T00:11:49.292Z,103104.37
2017-12-20T00:14:15.777Z,103102.66
2017-12-20T00:16:42.024Z,103103.06
2017-12-20T00:19:08.216Z,103099.55
2017-12-20T00:21:34.664Z,103099.57
2017-12-20T00:24:00.900Z,103102.17
2017-12-20T00:26:27.083Z,103096.05
2017-12-20T00:28:53.259Z,103095.61
2017-12-20T00:31:19.494Z,103103.50
2017-12-20T00:33:45.690Z,103092.53
2017-12-20T00:36:11.877Z,103098.67
2017-12-20T00:38:38.422Z,103096.50
2017-12-20T00:41:04.611Z,103087.71
2017-12-20T00:43:30.792Z,103087.73
2017-12-20T00:45:57.019Z,103084.20
2017-12-20T00:48:23.481Z,103095.16
2017-12-20T00:50:49.773Z,103098.20
2017-12-20T00:53:16.060Z,103099.10
2017-12-20T00:55:42.240Z,103098.21
2017-12-20T00:58:08.418Z,103102.62
2017-12-20T01:00:34.665Z,103103.94
2017-12-20T01:03:00.868Z,103102.60
2017-12-20T01:05:27.081Z,103105.66
2017-12-20T01:07:53.316Z,103099.95
2017-12-20T01:10:19.601Z,103101.72
2017-12-20T01:12:45.791Z,103108.28
2017-12-20T01:15:12.707Z,103109.14
2017-12-20T01:17:38.884Z,103108.72
2017-12-20T01:20:05.133Z,103113.09
2017-12-20T01:22:31.333Z,103112.67
2017-12-20T01:24:57.535Z,103106.55
2017-12-20T01:27:23.712Z,103113.98
2017-12-20T01:29:49.920Z,103114.87
2017-12-20T01:32:16.120Z,103111.78
2017-12-20T01:34:42.360Z,103117.06
2017-12-20T01:37:08.539Z,103115.30
2017-12-20T01:39:34.708Z,103120.55
2017-12-20T01:42:01.216Z,103125.37
2017-12-20T01:44:27.409Z,103119.67
2017-12-20T01:46:53.880Z,103117.94
2017-12-20T01:49:20.962Z,103125.81
2017-12-20T01:51:47.480Z,103122.23
2017-12-20T01:54:13.656Z,103118.31
2017-12-20T01:56:39.901Z,103116.17
2017-12-20T01:59:06.102Z,103111.75
2017-12-20T02:01:32.296Z,103110.48
2017-12-20T02:03:58.556Z,103109.17
2017-12-20T02:06:30.737Z,103109.16
2017-12-20T02:08:57.180Z,103109.16
2017-12-20T02:11:23.484Z,103108.27
2017-12-20T02:13:49.681Z,103112.67
2017-12-20T02:16:15.869Z,103114.41
2017-12-20T02:18:42.180Z,103119.67
2017-12-20T02:21:08.380Z,103113.55
2017-12-20T02:23:34.578Z,103110.04
2017-12-20T02:26:00.812Z,103106.97
2017-12-20T02:28:27.013Z,103099.94
2017-12-20T02:30:53.204Z,103105.63
2017-12-20T02:33:29.826Z,103106.09
2017-12-20T02:35:56.103Z,103100.87
2017-12-20T02:38:34.536Z,103102.16
2017-12-20T02:41:00.795Z,103097.76
2017-12-20T02:43:27.000Z,103085.92
2017-12-20T02:45:53.872Z,103074.09
2017-12-20T02:48:20.071Z,103080.69
2017-12-20T02:50:46.527Z,103067.53
2017-12-20T02:53:12.943Z,103067.96
2017-12-20T02:55:39.161Z,103069.28
2017-12-20T02:58:05.364Z,103067.53
2017-12-20T03:00:31.604Z,103063.59
2017-12-20T03:02:58.085Z,103062.72
2017-12-20T03:05:24.276Z,103060.10
2017-12-20T03:07:50.751Z,103054.41
2017-12-20T03:10:16.937Z,103062.27
2017-12-20T03:12:43.144Z,103062.69
2017-12-20T03:15:09.380Z,103056.56
2017-12-20T03:17:35.587Z,103062.30
2017-12-20T03:20:01.823Z,103058.34
2017-12-20T03:22:28.024Z,103064.47
2017-12-20T03:24:54.229Z,103057.89
2017-12-20T03:27:20.477Z,103060.09
2017-12-20T03:29:46.672Z,103059.67
2017-12-20T03:32:12.864Z,103060.52
2017-12-20T03:34:39.108Z,103053.08
2017-12-20T03:37:05.298Z,103059.65
2017-12-20T03:39:32.016Z,103056.12
2017-12-20T03:41:58.252Z,103058.78
2017-12-20T03:44:24.775Z,103060.95
2017-12-20T03:46:50.958Z,103062.28
2017-12-20T03:49:17.459Z,103060.09
2017-12-20T03:51:43.652Z,103063.61
2017-12-20T03:54:09.970Z,103059.67
2017-12-20T03:56:36.227Z,103064.06
2017-12-20T03:59:02.413Z,103060.09
2017-12-20T04:01:28.605Z,103058.34
2017-12-20T04:03:54.932Z,103062.27
2017-12-20T04:06:21.106Z,103057.45
2017-12-20T04:08:47.568Z,103058.33
2017-12-20T04:11:14.262Z,103062.76
2017-12-20T04:13:40.446Z,103059.74
2017-12-20T04:16:06.623Z,103054.94
2017-12-20T04:18:32.861Z,103058.00
2017-12-20T04:20:59.073Z,103060.17
2017-12-20T04:23:25.269Z,103068.93
2017-12-20T04:25:51.521Z,103073.74
2017-12-20T04:28:17.729Z,103080.77
2017-12-20T04:30:44.012Z,103079.86
2017-12-20T04:33:10.636Z,103079.42
2017-12-20T04:35:36.841Z,103078.55
2017-12-20T04:38:03.021Z,103081.19
2017-12-20T04:40:29.324Z,103075.45
2017-12-20T04:42:55.570Z,103076.80
2017-12-20T04:45:21.766Z,103075.03
2017-12-20T04:47:47.947Z,103074.60
2017-12-20T04:50:14.198Z,103075.92
2017-12-20T04:52:40.399Z,103066.69
2017-12-20T04:55:06.603Z,103067.10
2017-12-20T04:57:32.824Z,103068.88
2017-12-20T04:59:59.013Z,103066.26
2017-12-20T05:02:25.204Z,103070.20
2017-12-20T05:04:51.446Z,103067.10
2017-12-20T05:07:17.632Z,103076.33
2017-12-20T05:09:43.800Z,103079.38
2017-12-20T05:12:10.609Z,103078.05
2017-12-20T05:14:36.803Z,103081.56
2017-12-20T05:17:02.996Z,103078.95
2017-12-20T05:19:29.248Z,103080.29
2017-12-20T05:21:55.441Z,103082.05
2017-12-20T05:24:21.620Z,103088.20
2017-12-20T05:26:48.110Z,103086.42
2017-12-20T05:29:14.547Z,103088.17
2017-12-20T05:31:40.723Z,103084.67
2017-12-20T05:34:07.214Z,103085.55
2017-12-20T05:36:33.418Z,103085.55
2017-12-20T05:38:59.617Z,103096.52
2017-12-20T05:41:25.859Z,103091.22
2017-12-20T05:43:52.048Z,103098.24
2017-12-20T05:46:18.472Z,103104.36
2017-12-20T05:48:44.712Z,103100.87
2017-12-20T05:51:10.876Z,103104.83
2017-12-20T05:53:37.050Z,103103.08
2017-12-20T05:56:03.692Z,103111.41
2017-12-20T05:58:29.880Z,103107.92
2017-12-20T06:00:56.125Z,103110.54
2017-12-20T06:03:22.364Z,103112.70
2017-12-20T06:05:48.565Z,103118.41
2017-12-20T06:08:15.109Z,103119.27
2017-12-20T06:10:41.352Z,103118.41
2017-12-20T06:13:07.534Z,103118.86
2017-12-20T06:15:33.736Z,103112.70
2017-12-20T06:17:59.985Z,103116.64
2017-12-20T06:20:26.185Z,103120.59
2017-12-20T06:22:52.356Z,103121.04
2017-12-20T06:25:18.592Z,103122.38
2017-12-20T06:27:44.786Z,103127.59
2017-12-20T06:30:10.973Z,103125.87
2017-12-20T06:32:37.537Z,103132.86
2017-12-20T06:35:03.742Z,103133.30
2017-12-20T06:37:29.947Z,103134.63
2017-12-20T06:39:56.443Z,103131.96
2017-12-20T06:42:22.874Z,103133.64
2017-12-20T06:44:49.109Z,103128.81
2017-12-20T06:47:15.349Z,103134.50
2017-12-20T06:49:41.550Z,103142.39
2017-12-20T06:52:07.742Z,103142.81
2017-12-20T06:54:34.004Z,103141.95
2017-12-20T06:57:00.291Z,103143.29
2017-12-20T06:59:26.525Z,103141.95
2017-12-20T07:01:53.091Z,103141.51
2017-12-20T07:04:19.345Z,103144.59
2017-12-20T07:06:45.524Z,103152.48
2017-12-20T07:09:11.752Z,103154.23
2017-12-20T07:11:37.931Z,103150.73
2017-12-20T07:14:04.147Z,103147.67
2017-12-20T07:16:30.738Z,103149.51
2017-12-20T07:18:56.908Z,103152.16
2017-12-20T07:21:23.091Z,103155.26
2017-12-20T07:23:49.340Z,103159.20
2017-12-20T07:26:15.506Z,103171.05
2017-12-20T07:28:41.706Z,103172.82
2017-12-20T07:31:08.254Z,103166.25
2017-12-20T07:33:34.443Z,103159.64
2017-12-20T07:36:00.653Z,103161.84
2017-12-20T07:38:27.232Z,103171.45
2017-12-20T07:40:53.461Z,103164.03
2017-12-20T07:43:19.655Z,103166.67
2017-12-20T07:45:45.942Z,103165.34
2017-12-20T07:48:12.397Z,103163.58
2017-12-20T07:50:38.810Z,103179.37
2017-12-20T07:53:05.062Z,103168.86
2017-12-20T07:55:31.241Z,103169.73
2017-12-20T07:57:57.528Z,103166.64
2017-12-20T08:00:23.787Z,103167.96
2017-12-20T08:02:49.976Z,103172.33
2017-12-20T08:05:16.160Z,103174.52
2017-12-20T08:07:42.657Z,103171.02
2017-12-20T08:10:08.831Z,103171.44
2017-12-20T08:12:35.040Z,103174.95
2017-12-20T08:15:01.595Z,103169.68
2017-12-20T08:17:27.791Z,103167.95
2017-12-20T08:19:53.975Z,103172.33
2017-12-20T08:22:20.227Z,103172.77
2017-12-20T08:24:46.408Z,103172.35
2017-12-20T08:27:12.586Z,103167.95
2017-12-20T08:29:38.858Z,103173.67
2017-12-20T08:32:05.069Z,103165.79
2017-12-20T08:34:31.248Z,103171.05
2017-12-20T08:36:57.489Z,103163.58
2017-12-20T08:39:23.907Z,103167.12
2017-12-20T08:41:50.083Z,103163.16
2017-12-20T08:44:16.367Z,103159.66
2017-12-20T08:46:42.519Z,103164.93
2017-12-20T08:49:08.722Z,103166.66
2017-12-20T08:51:34.979Z,103166.66
2017-12-20T08:54:01.161Z,103174.56
2017-12-20T08:56:27.351Z,103177.19
2017-12-20T08:58:53.617Z,103167.09
2017-12-20T09:01:19.806Z,103172.82
2017-12-20T09:03:46.296Z,103174.56
2017-12-20T09:06:12.791Z,103182.46
2017-12-20T09:08:39.002Z,103181.16
2017-12-20T09:11:05.177Z,103190.34
2017-12-20T09:13:31.725Z,103192.53
2017-12-20T09:15:57.929Z,103193.42
2017-12-20T09:18:24.138Z,103193.86
2017-12-20T09:20:50.383Z,103196.06
2017-12-20T09:23:16.837Z,103200.44
2017-12-20T09:25:43.030Z,103204.39
2017-12-20T09:28:09.650Z,103202.16
2017-12-20T09:30:35.848Z,103203.05
2017-12-20T09:33:02.103Z,103206.56
2017-12-20T09:35:28.331Z,103207.44
2017-12-20T09:37:54.506Z,103201.31
2017-12-20T09:40:20.707Z,103194.73
2017-12-20T09:42:47.177Z,103190.79
2017-12-20T09:45:13.359Z,103182.91
2017-12-20T09:47:39.556Z,103176.76
2017-12-20T09:50:05.783Z,103177.62
2017-12-20T09:52:31.957Z,103186.87
2017-12-20T09:54:58.398Z,103193.48
2017-12-20T09:57:24.647Z,103193.02
2017-12-20T09:59:50.908Z,103194.34
2017-12-20T10:02:17.106Z,103198.73
2017-12-20T10:04:43.944Z,103191.70
2017-12-20T10:07:10.169Z,103191.73
2017-12-20T10:09:36.318Z,103192.16
2017-12-20T10:12:02.613Z,103186.91
2017-12-20T10:14:28.788Z,103191.69
2017-12-20T10:16:55.051Z,103186.45
2017-12-20T10:19:21.320Z,103185.55
2017-12-20T10:21:47.523Z,103185.55
2017-12-20T10:24:13.699Z,103182.07
2017-12-20T10:26:39.984Z,103182.91
2017-12-20T10:29:06.168Z,103182.50
2017-12-20T10:31:32.352Z,103178.09
2017-12-20T10:33:58.932Z,103180.30
2017-12-20T10:36:25.132Z,103179.42
2017-12-20T10:38:51.326Z,103183.83
2017-12-20T10:41:17.863Z,103186.90
2017-12-20T10:43:44.050Z,103186.04
2017-12-20T10:46:10.248Z,103182.96
2017-12-20T10:48:36.489Z,103182.53
2017-12-20T10:51:02.722Z,103180.33
2017-12-20T10:53:29.159Z,103182.09
2017-12-20T10:55:55.420Z,103186.03
2017-12-20T10:58:21.624Z,103190.44
2017-12-20T11:00:47.872Z,103185.56
2017-12-20T11:03:14.427Z,103187.30
2017-12-20T11:05:40.608Z,103184.67
2017-12-20T11:08:06.798Z,103178.97
2017-12-20T11:10:33.049Z,103177.67
2017-12-20T11:12:59.631Z,103173.34
2017-12-20T11:15:25.841Z,103178.19
2017-12-20T11:17:52.081Z,103169.88
2017-12-20T11:20:18.312Z,103174.69
2017-12-20T11:22:45.923Z,103180.79
2017-12-20T11:25:12.512Z,103172.91
2017-12-20T11:27:38.721Z,103164.59
2017-12-20T11:30:04.958Z,103163.71
2017-12-20T11:32:31.213Z,103168.11
2017-12-20T11:34:57.425Z,103161.99
2017-12-20T11:37:23.641Z,103164.20
2017-12-20T11:39:49.986Z,103163.33
2017-12-20T11:42:16.177Z,103156.28
2017-12-20T11:44:42.368Z,103156.27
2017-12-20T11:47:08.637Z,103158.03
2017-12-20T11:49:34.828Z,103155.83
2017-12-20T11:52:01.023Z,103150.98
2017-12-20T11:54:27.271Z,103150.99
2017-12-20T11:56:53.459Z,103148.77
2017-12-20T11:59:19.661Z,103146.15
2017-12-20T12:01:45.957Z,103140.45
2017-12-20T12:04:12.174Z,103147.48
2017-12-20T12:06:38.382Z,103148.34
2017-12-20T12:09:04.661Z,103141.31
2017-12-20T12:11:30.873Z,103141.31
2017-12-20T12:13:57.068Z,103147.03
2017-12-20T12:16:23.596Z,103137.84
2017-12-20T12:18:50.039Z,103143.51
2017-12-20T12:21:16.225Z,103147.05
2017-12-20T12:23:42.473Z,103145.70
2017-12-20T12:26:08.663Z,103146.59
2017-12-20T12:28:34.869Z,103144.38
2017-12-20T12:31:01.494Z,103132.09
2017-12-20T12:33:27.700Z,103129.03
2017-12-20T12:35:54.134Z,103127.29
2017-12-20T12:38:20.753Z,103126.41
2017-12-20T12:40:47.017Z,103127.31
2017-12-20T12:43:13.483Z,103120.31
2017-12-20T12:45:39.750Z,103123.85
2017-12-20T12:48:05.942Z,103117.28
2017-12-20T12:50:32.143Z,103116.84
2017-12-20T12:52:58.392Z,103119.94
2017-12-20T12:55:24.583Z,103120.38
2017-12-20T12:57:50.771Z,103115.09
2017-12-20T13:00:17.153Z,103113.34
2017-12-20T13:02:43.408Z,103115.54
2017-12-20T13:05:09.604Z,103116.84
2017-12-20T13:07:36.208Z,103113.31
2017-12-20T13:10:02.394Z,103105.86
2017-12-20T13:12:28.631Z,103097.09
2017-12-20T13:14:54.875Z,103101.47
2017-12-20T13:17:21.069Z,103108.51
2017-12-20T13:19:47.268Z,103106.76
2017-12-20T13:22:13.852Z,103102.77
2017-12-20T13:24:40.034Z,103108.92
2017-12-20T13:27:06.232Z,103106.28
2017-12-20T13:29:32.485Z,103109.80
2017-12-20T13:31:58.806Z,103101.91
2017-12-20T13:34:24.991Z,103103.19
2017-12-20T13:36:51.240Z,103103.19
2017-12-20T13:39:17.436Z,103098.36
2017-12-20T13:41:43.633Z,103101.89
2017-12-20T13:44:10.260Z,103105.38
2017-12-20T13:46:36.449Z,103110.66
2017-12-20T13:49:02.634Z,103110.64
2017-12-20T13:51:29.206Z,103114.58
2017-12-20T13:53:55.736Z,103120.70
2017-12-20T13:56:21.948Z,103132.11
2017-12-20T13:58:48.200Z,103133.40
2017-12-20T14:01:14.666Z,103135.16
2017-12-20T14:03:40.872Z,103129.02
2017-12-20T14:06:07.436Z,103127.27
2017-12-20T14:08:33.634Z,103127.27
2017-12-20T14:10:59.816Z,103127.28
2017-12-20T14:13:26.498Z,103120.28
2017-12-20T14:15:52.725Z,103123.77
2017-12-20T14:18:18.914Z,103136.05
2017-12-20T14:20:45.189Z,103137.82
2017-12-20T14:23:11.365Z,103143.06
2017-12-20T14:25:37.555Z,103149.64
2017-12-20T14:28:04.265Z,103136.04
2017-12-20T14:30:30.489Z,103132.09
2017-12-20T14:32:56.735Z,103129.02
2017-12-20T14:35:22.971Z,103131.64
2017-12-20T14:37:49.215Z,103131.64
2017-12-20T14:40:15.442Z,103133.86
2017-12-20T14:42:41.679Z,103131.64
2017-12-20T14:45:07.863Z,103134.28
2017-12-20T14:47:34.061Z,103138.23
2017-12-20T14:50:00.592Z,103132.53
2017-12-20T14:52:26.766Z,103125.95
2017-12-20T14:54:53.178Z,103125.98
2017-12-20T14:57:19.755Z,103125.95
2017-12-20T14:59:46.049Z,103121.55
2017-12-20T15:02:12.336Z,103114.09
2017-12-20T15:04:38.597Z,103104.47
2017-12-20T15:07:04.776Z,103099.19
2017-12-20T15:09:30.997Z,103095.67
2017-12-20T15:11:57.544Z,103093.50
2017-12-20T15:14:24.127Z,103096.11
2017-12-20T15:16:50.349Z,103101.80
2017-12-20T15:19:16.933Z,103099.15
2017-12-20T15:21:43.125Z,103103.98
2017-12-20T15:24:09.656Z,103101.36
2017-12-20T15:26:36.400Z,103101.37
2017-12-20T15:29:02.595Z,103107.92
2017-12-20T15:31:28.809Z,103115.83
2017-12-20T15:33:55.067Z,103122.42
2017-12-20T15:36:21.272Z,103123.31
2017-12-20T15:38:47.730Z,103125.49
2017-12-20T15:41:13.993Z,103121.10
2017-12-20T15:43:40.191Z,103127.23
2017-12-20T15:46:06.391Z,103135.15
2017-12-20T15:48:32.991Z,103135.58
2017-12-20T15:50:59.179Z,103125.06
2017-12-20T15:53:25.602Z,103131.63
2017-12-20T15:55:52.463Z,103132.05
2017-12-20T15:58:18.643Z,103142.53
2017-12-20T16:00:44.879Z,103142.58
2017-12-20T16:03:11.103Z,103143.88
2017-12-20T16:05:37.397Z,103150.88
2017-12-20T16:08:03.571Z,103147.82
2017-12-20T16:10:29.820Z,103130.70
2017-12-20T16:12:56.023Z,103128.05
2017-12-20T16:15:22.482Z,103135.55
2017-12-20T16:17:48.732Z,103142.98
2017-12-20T16:20:14.926Z,103141.67
2017-12-20T16:22:41.383Z,103144.32
2017-12-20T16:25:07.938Z,103135.98
2017-12-20T16:27:34.125Z,103144.28
2017-12-20T16:30:00.317Z,103136.81
2017-12-20T16:32:27.112Z,103142.53
2017-12-20T16:34:53.313Z,103136.86
2017-12-20T16:37:19.501Z,103132.02
2017-12-20T16:39:45.748Z,103133.35
2017-12-20T16:42:11.947Z,103126.76
2017-12-20T16:44:38.142Z,103118.02
2017-12-20T16:47:04.372Z,103115.38
2017-12-20T16:49:30.587Z,103123.70
2017-12-20T16:51:57.041Z,103124.58
2017-12-20T16:54:23.279Z,103118.43
2017-12-20T16:56:49.460Z,103121.91
2017-12-20T16:59:15.650Z,103119.72
2017-12-20T17:01:41.882Z,103121.88
2017-12-20T17:04:08.064Z,103126.30
2017-12-20T17:06:34.271Z,103128.03
2017-12-20T17:09:00.733Z,103132.84
2017-12-20T17:11:26.931Z,103131.46
2017-12-20T17:13:53.142Z,103137.59
2017-12-20T17:16:19.611Z,103129.27
2017-12-20T17:18:45.797Z,103126.20
2017-12-20T17:21:12.038Z,103133.64
2017-12-20T17:23:38.293Z,103131.90
2017-12-20T17:26:04.492Z,103134.06
2017-12-20T17:28:30.911Z,103136.70
2017-12-20T17:30:57.160Z,103139.77
2017-12-20T17:33:23.339Z,103148.09
2017-12-20T17:35:49.525Z,103141.06
2017-12-20T17:38:15.996Z,103139.75
2017-12-20T17:40:42.509Z,103134.48
2017-12-20T17:43:08.946Z,103142.38
2017-12-20T17:45:35.140Z,103142.37
2017-12-20T17:48:01.762Z,103147.64
2017-12-20T17:50:27.955Z,103150.24
2017-12-20T17:52:54.148Z,103152.88
2017-12-20T17:55:20.756Z,103148.06
2017-12-20T17:57:47.205Z,103141.91
2017-12-20T18:00:13.444Z,103136.66
2017-12-20T18:02:39.687Z,103131.87
2017-12-20T18:05:05.956Z,103130.98
2017-12-20T18:07:32.146Z,103143.24
2017-12-20T18:09:59.004Z,103138.86
2017-12-20T18:12:25.207Z,103128.76
2017-12-20T18:14:51.392Z,103127.91
2017-12-20T18:17:17.643Z,103134.06
2017-12-20T18:19:43.825Z,103134.91
2017-12-20T18:22:10.010Z,103136.67
2017-12-20T18:24:36.558Z,103145.43
2017-12-20T18:27:02.741Z,103149.38
2017-12-20T18:29:29.021Z,103143.24
2017-12-20T18:31:55.875Z,103133.17
2017-12-20T18:34:22.061Z,103137.12
2017-12-20T18:36:48.256Z,103155.08
2017-12-20T18:39:14.505Z,103150.24
2017-12-20T18:41:40.709Z,103142.36
2017-12-20T18:44:06.883Z,103137.08
2017-12-20T18:46:33.448Z,103152.88
2017-12-20T18:48:59.684Z,103145.84
2017-12-20T18:51:25.891Z,103146.75
2017-12-20T18:53:52.110Z,103155.05
2017-12-20T18:56:18.361Z,103145.83
2017-12-20T18:58:44.636Z,103156.80
2017-12-20T19:01:10.893Z,103158.55
2017-12-20T19:03:37.080Z,103159.91
2017-12-20T19:06:03.316Z,103145.87
2017-12-20T19:08:29.530Z,103133.59
2017-12-20T19:10:55.740Z,103125.72
2017-12-20T19:13:22.025Z,103130.53
2017-12-20T19:15:48.232Z,103127.91
2017-12-20T19:18:14.504Z,103122.20
2017-12-20T19:20:40.721Z,103118.73
2017-12-20T19:23:07.000Z,103123.08
2017-12-20T19:25:33.268Z,103135.38
2017-12-20T19:27:59.458Z,103145.91
2017-12-20T19:30:25.744Z,103148.10
2017-12-20T19:32:51.964Z,103146.80
2017-12-20T19:35:18.533Z,103146.36
2017-12-20T19:37:44.794Z,103146.81
2017-12-20T19:40:11.009Z,103135.39
2017-12-20T19:42:37.468Z,103124.45
2017-12-20T19:45:03.716Z,103114.37
2017-12-20T19:47:29.924Z,103107.80
2017-12-20T19:49:56.518Z,103098.59
2017-12-20T19:52:22.776Z,103091.56
2017-12-20T19:54:48.990Z,103090.27
2017-12-20T19:57:15.499Z,103102.08
2017-12-20T19:59:42.080Z,103098.56
2017-12-20T20:02:08.257Z,103087.16
2017-12-20T20:04:34.441Z,103083.20
2017-12-20T20:07:00.763Z,103073.14
2017-12-20T20:09:27.036Z,103080.58
2017-12-20T20:11:53.262Z,103087.69
2017-12-20T20:14:20.120Z,103086.41
2017-12-20T20:16:46.313Z,103070.65
2017-12-20T20:19:12.504Z,103075.48
2017-12-20T20:21:38.929Z,103073.30
2017-12-20T20:24:05.110Z,103072.02
2017-12-20T20:26:31.292Z,103071.12
2017-12-20T20:28:58.072Z,103074.19
2017-12-20T20:31:24.261Z,103083.83
2017-12-20T20:33:50.455Z,103089.09
2017-12-20T20:36:16.729Z,103089.12
2017-12-20T20:38:42.934Z,103101.36
2017-12-20T20:41:09.129Z,103094.34
2017-12-20T20:43:35.361Z,103086.44
2017-12-20T20:46:01.561Z,103092.14
2017-12-20T20:48:27.742Z,103080.31
2017-12-20T20:50:53.981Z,103082.48
2017-12-20T20:53:20.171Z,103080.30
2017-12-20T20:55:46.381Z,103084.26
2017-12-20T20:58:12.673Z,103085.11
2017-12-20T21:00:38.871Z,103070.65
2017-12-20T21:03:05.057Z,103062.78
2017-12-20T21:05:31.288Z,103061.47
2017-12-20T21:07:57.497Z,103062.34
2017-12-20T21:10:24.097Z,103060.58
2017-12-20T21:12:50.312Z,103060.14
2017-12-20T21:15:16.508Z,103059.70
2017-12-20T21:17:42.777Z,103062.77
2017-12-20T21:20:08.984Z,103061.03
2017-12-20T21:22:35.543Z,103074.62
2017-12-20T21:25:02.216Z,103070.23
2017-12-20T21:27:28.376Z,103077.27
2017-12-20T21:29:54.585Z,103074.62
2017-12-20T21:32:20.815Z,103068.90
2017-12-20T21:34:47.002Z,103072.44
2017-12-20T21:37:13.196Z,103071.12
2017-12-20T21:39:39.435Z,103079.42
2017-12-20T21:42:05.641Z,103094.34
2017-12-20T21:44:31.835Z,103087.33
2017-12-20T21:46:58.375Z,103082.06
2017-12-20T21:49:24.858Z,103083.37
2017-12-20T21:51:51.070Z,103092.16
2017-12-20T21:54:17.327Z,103098.73
2017-12-20T21:56:43.519Z,103093.91
2017-12-20T21:59:09.707Z,103093.91
2017-12-20T22:01:35.972Z,103100.05
2017-12-20T22:04:02.158Z,103105.31
2017-12-20T22:06:28.356Z,103100.94
2017-12-20T22:08:54.637Z,103101.36
2017-12-20T22:11:20.913Z,103096.53
2017-12-20T22:13:47.139Z,103097.41
2017-12-20T22:16:13.412Z,103082.06
2017-12-20T22:18:39.617Z,103082.53
2017-12-20T22:21:05.796Z,103068.94
2017-12-20T22:23:32.357Z,103077.69
2017-12-20T22:25:58.568Z,103075.06
2017-12-20T22:28:24.760Z,103069.36
2017-12-20T22:30:51.000Z,103071.11
2017-12-20T22:33:17.189Z,103067.15
2017-12-20T22:35:43.392Z,103072.86
2017-12-20T22:38:09.636Z,103071.96
2017-12-20T22:40:35.860Z,103075.06
2017-12-20T22:43:02.043Z,103079.39
2017-12-20T22:45:28.291Z,103086.02
2017-12-20T22:47:54.499Z,103087.76
2017-12-20T22:50:20.687Z,103082.08
2017-12-20T22:52:47.039Z,103079.03
2017-12-20T22:55:13.280Z,103079.47
2017-12-20T22:57:39.472Z,103075.09
2017-12-20T23:00:05.771Z,103071.15
2017-12-20T23:02:31.993Z,103080.78
2017-12-20T23:04:58.557Z,103073.33
2017-12-20T23:07:24.812Z,103078.61
2017-12-20T23:09:51.006Z,103075.09
2017-12-20T23:12:17.278Z,103079.45
2017-12-20T23:14:43.536Z,103076.39
2017-12-20T23:17:09.713Z,103061.47
2017-12-20T23:19:35.895Z,103047.00
2017-12-20T23:22:02.115Z,103049.66
2017-12-20T23:24:28.314Z,103053.16
2017-12-20T23:26:54.515Z,103051.38
2017-12-20T23:29:21.032Z,103057.55
2017-12-20T23:31:47.224Z,103061.50
2017-12-20T23:34:13.458Z,103057.52
2017-12-20T23:36:39.688Z,103062.35
2017-12-20T23:39:05.868Z,103054.45
2017-12-20T23:41:32.053Z,103051.37
2017-12-20T23:43:58.321Z,103054.91
2017-12-20T23:46:24.510Z,103053.16
2017-12-20T23:48:50.718Z,103047.90
2017-12-20T23:51:17.292Z,103050.95
2017-12-20T23:53:43.473Z,103043.50
2017-12-20T23:56:09.956Z,103045.66
2017-12-20T23:58:36.211Z,103050.47
